createdAt,value
2019-06-20T00:00:45.175Z,19.30
2019-06-20T00:01:45.178Z,22.60
2019-06-20T00:02:45.180Z,17.50
2019-06-20T00:03:45.181Z,20.20
2019-06-20T00:04:45.182Z,27.80
2019-06-20T00:05:45.183Z,18.60
2019-06-20T00:06:45.186Z,18.50
2019-06-20T00:07:45.189Z,21.90
2019-06-20T00:08:45.188Z,17.60
2019-06-20T00:09:45.190Z,18.30
2019-06-20T00:10:45.192Z,17.90
2019-06-20T00:11:45.193Z,17.10
2019-06-20T00:12:59.582Z,20.00
2019-06-20T00:13:45.194Z,22.00
2019-06-20T00:14:45.197Z,25.40
2019-06-20T00:15:45.199Z,24.80
2019-06-20T00:16:45.198Z,23.40
2019-06-20T00:17:45.201Z,26.50
2019-06-20T00:18:45.202Z,18.80
2019-06-20T00:19:45.201Z,24.80
2019-06-20T00:20:45.203Z,23.40
2019-06-20T00:21:45.205Z,22.10
2019-06-20T00:22:45.206Z,25.60
2019-06-20T00:23:45.208Z,23.20
2019-06-20T00:24:45.210Z,23.00
2019-06-20T00:25:45.211Z,19.30
2019-06-20T00:26:45.211Z,20.40
2019-06-20T00:27:45.214Z,22.40
2019-06-20T00:28:45.214Z,22.30
2019-06-20T00:29:45.217Z,20.60
2019-06-20T00:30:45.219Z,23.80
2019-06-20T00:31:45.217Z,20.40
2019-06-20T00:32:45.295Z,21.00
2019-06-20T00:33:45.220Z,20.60
2019-06-20T00:34:45.221Z,21.10
2019-06-20T00:35:45.228Z,21.40
2019-06-20T00:36:45.229Z,24.40
2019-06-20T00:37:45.227Z,18.90
2019-06-20T00:38:45.229Z,22.90
2019-06-20T00:39:45.229Z,22.50
2019-06-20T00:40:45.228Z,27.90
2019-06-20T00:41:45.229Z,27.30
2019-06-20T00:42:45.232Z,21.50
2019-06-20T00:43:45.236Z,20.40
2019-06-20T00:44:45.235Z,22.50
2019-06-20T00:45:45.236Z,16.10
2019-06-20T00:46:45.236Z,28.10
2019-06-20T00:47:45.237Z,23.50
2019-06-20T00:48:45.239Z,23.60
2019-06-20T00:49:45.246Z,20.30
2019-06-20T00:50:45.242Z,23.60
2019-06-20T00:51:45.243Z,21.20
2019-06-20T00:52:45.255Z,24.20
2019-06-20T00:53:45.245Z,19.90
2019-06-20T00:54:45.245Z,21.40
2019-06-20T00:55:45.246Z,23.30
2019-06-20T00:56:45.249Z,23.30
2019-06-20T00:57:45.251Z,24.20
2019-06-20T00:58:45.257Z,27.50
2019-06-20T00:59:45.251Z,23.50
2019-06-20T01:00:45.254Z,21.70
2019-06-20T01:01:45.256Z,13.60
2019-06-20T01:02:45.263Z,19.60
2019-06-20T01:03:45.256Z,22.50
2019-06-20T01:04:45.258Z,20.50
2019-06-20T01:05:45.261Z,19.30
2019-06-20T01:06:45.262Z,23.10
2019-06-20T01:07:45.270Z,21.00
2019-06-20T01:08:45.265Z,20.70
2019-06-20T01:09:45.266Z,16.50
2019-06-20T01:10:45.267Z,17.90
2019-06-20T01:11:45.271Z,18.50
2019-06-20T01:12:45.272Z,23.30
2019-06-20T01:13:45.373Z,17.80
2019-06-20T01:14:45.272Z,17.30
2019-06-20T01:15:45.275Z,17.90
2019-06-20T01:16:45.286Z,26.80
2019-06-20T01:17:45.276Z,21.90
2019-06-20T01:18:45.276Z,22.80
2019-06-20T01:19:45.278Z,17.90
2019-06-20T01:20:45.284Z,20.60
2019-06-20T01:21:45.284Z,15.60
2019-06-20T01:22:45.288Z,21.70
2019-06-20T01:23:45.283Z,21.50
2019-06-20T01:24:45.285Z,20.40
2019-06-20T01:25:45.288Z,15.10
2019-06-20T01:26:45.287Z,20.80
2019-06-20T01:27:45.288Z,14.40
2019-06-20T01:28:45.288Z,21.80
2019-06-20T01:29:45.291Z,16.00
2019-06-20T01:30:45.291Z,13.60
2019-06-20T01:31:45.291Z,18.90
2019-06-20T01:32:45.295Z,17.40
2019-06-20T01:33:45.296Z,19.90
2019-06-20T01:34:45.297Z,20.70
2019-06-20T01:35:45.297Z,16.70
2019-06-20T01:36:45.298Z,19.10
2019-06-20T01:37:45.300Z,15.60
2019-06-20T01:38:45.302Z,13.40
2019-06-20T01:39:45.304Z,14.20
2019-06-20T01:40:45.306Z,12.90
2019-06-20T01:41:45.307Z,13.70
2019-06-20T01:42:45.307Z,17.30
2019-06-20T01:43:50.693Z,18.70
2019-06-20T01:44:45.320Z,25.20
2019-06-20T01:45:45.312Z,18.20
2019-06-20T01:46:45.312Z,16.00
2019-06-20T01:47:45.313Z,15.80
2019-06-20T01:48:45.322Z,19.40
2019-06-20T01:49:45.317Z,19.80
2019-06-20T01:50:45.315Z,18.90
2019-06-20T01:51:45.323Z,20.50
2019-06-20T01:52:45.321Z,15.20
2019-06-20T01:53:45.321Z,17.00
2019-06-20T01:54:45.320Z,17.50
2019-06-20T01:55:45.327Z,16.30
2019-06-20T01:56:45.332Z,19.30
2019-06-20T01:57:45.325Z,18.50
2019-06-20T01:58:45.324Z,20.20
2019-06-20T01:59:45.325Z,15.70
2019-06-20T02:00:45.328Z,19.70
2019-06-20T02:01:45.332Z,16.70
2019-06-20T02:02:45.331Z,16.60
2019-06-20T02:03:45.329Z,19.70
2019-06-20T02:04:45.330Z,20.20
2019-06-20T02:05:45.334Z,13.90
2019-06-20T02:06:45.340Z,19.40
2019-06-20T02:07:45.333Z,25.00
2019-06-20T02:08:45.334Z,19.30
2019-06-20T02:09:45.342Z,14.50
2019-06-20T02:10:45.342Z,18.70
2019-06-20T02:11:45.338Z,16.10
2019-06-20T02:12:45.339Z,17.10
2019-06-20T02:13:45.360Z,17.20
2019-06-20T02:14:45.343Z,16.90
2019-06-20T02:15:45.341Z,16.20
2019-06-20T02:16:45.386Z,20.70
2019-06-20T02:17:45.347Z,12.80
2019-06-20T02:18:45.345Z,18.90
2019-06-20T02:19:45.350Z,18.20
2019-06-20T02:20:45.350Z,15.10
2019-06-20T02:21:45.348Z,18.60
2019-06-20T02:22:45.350Z,28.40
2019-06-20T02:23:45.350Z,20.80
2019-06-20T02:24:45.358Z,16.10
2019-06-20T02:25:45.353Z,13.40
2019-06-20T02:26:45.360Z,15.40
2019-06-20T02:27:45.355Z,18.60
2019-06-20T02:28:45.355Z,13.30
2019-06-20T02:29:45.381Z,12.60
2019-06-20T02:30:45.358Z,15.50
2019-06-20T02:31:45.363Z,17.70
2019-06-20T02:32:45.361Z,12.20
2019-06-20T02:33:45.361Z,15.00
2019-06-20T02:34:45.369Z,15.70
2019-06-20T02:35:45.364Z,19.00
2019-06-20T02:36:45.365Z,20.90
2019-06-20T02:37:45.367Z,16.60
2019-06-20T02:38:45.366Z,17.10
2019-06-20T02:39:45.454Z,19.80
2019-06-20T02:40:45.376Z,15.70
2019-06-20T02:41:45.371Z,17.10
2019-06-20T02:42:45.446Z,17.30
2019-06-20T02:43:45.374Z,13.50
2019-06-20T02:44:45.374Z,14.50
2019-06-20T02:45:45.389Z,15.40
2019-06-20T02:46:45.377Z,15.10
2019-06-20T02:47:45.377Z,15.00
2019-06-20T02:48:45.380Z,13.70
2019-06-20T02:49:45.380Z,13.60
2019-06-20T02:50:45.379Z,16.10
2019-06-20T02:51:45.384Z,17.30
2019-06-20T02:52:45.383Z,16.90
2019-06-20T02:53:45.404Z,13.00
2019-06-20T02:54:45.384Z,15.80
2019-06-20T02:55:45.387Z,15.40
2019-06-20T02:56:45.386Z,13.70
2019-06-20T02:57:45.390Z,16.00
2019-06-20T02:58:45.389Z,15.40
2019-06-20T02:59:45.390Z,18.30
2019-06-20T03:00:45.393Z,15.40
2019-06-20T03:01:45.393Z,14.90
2019-06-20T03:02:45.393Z,18.00
2019-06-20T03:03:45.395Z,18.40
2019-06-20T03:04:45.760Z,12.80
2019-06-20T03:05:45.397Z,18.50
2019-06-20T03:06:45.400Z,17.30
2019-06-20T03:07:45.399Z,18.80
2019-06-20T03:08:45.401Z,25.00
2019-06-20T03:09:45.405Z,20.30
2019-06-20T03:10:45.404Z,19.10
2019-06-20T03:11:45.405Z,19.10
2019-06-20T03:12:45.404Z,18.60
2019-06-20T03:13:45.406Z,20.70
2019-06-20T03:14:45.951Z,15.40
2019-06-20T03:15:45.439Z,21.50
2019-06-20T03:16:45.409Z,18.30
2019-06-20T03:17:45.412Z,21.40
2019-06-20T03:18:45.413Z,18.10
2019-06-20T03:19:45.421Z,25.80
2019-06-20T03:20:45.467Z,17.50
2019-06-20T03:21:45.415Z,16.70
2019-06-20T03:22:45.417Z,27.20
2019-06-20T03:23:45.418Z,22.20
2019-06-20T03:24:45.419Z,16.20
2019-06-20T03:25:45.420Z,26.40
2019-06-20T03:26:45.422Z,22.80
2019-06-20T03:27:45.440Z,26.00
2019-06-20T03:28:45.425Z,20.70
2019-06-20T03:29:45.425Z,26.30
2019-06-20T03:30:45.427Z,19.00
2019-06-20T03:31:45.427Z,23.30
2019-06-20T03:32:45.429Z,24.60
2019-06-20T03:33:45.430Z,27.90
2019-06-20T03:34:45.430Z,27.40
2019-06-20T03:35:45.432Z,22.50
2019-06-20T03:36:45.433Z,25.30
2019-06-20T03:37:45.433Z,25.40
2019-06-20T03:38:45.434Z,26.50
2019-06-20T03:39:45.436Z,27.00
2019-06-20T03:40:45.437Z,29.30
2019-06-20T03:41:45.440Z,24.20
2019-06-20T03:42:45.479Z,24.80
2019-06-20T03:43:45.439Z,32.80
2019-06-20T03:44:58.413Z,30.00
2019-06-20T03:45:45.458Z,29.10
2019-06-20T03:46:45.443Z,29.50
2019-06-20T03:47:45.444Z,27.20
2019-06-20T03:48:45.446Z,30.90
2019-06-20T03:49:45.449Z,31.00
2019-06-20T03:50:45.447Z,28.10
2019-06-20T03:51:45.449Z,25.90
2019-06-20T03:52:45.450Z,29.40
2019-06-20T03:53:45.454Z,27.70
2019-06-20T03:54:45.458Z,36.00
2019-06-20T03:55:45.453Z,34.90
2019-06-20T03:56:45.458Z,33.70
2019-06-20T03:57:45.461Z,30.80
2019-06-20T03:58:45.467Z,32.80
2019-06-20T03:59:45.502Z,33.40
2019-06-20T04:00:45.489Z,34.60
2019-06-20T04:01:48.909Z,32.10
2019-06-20T04:02:45.468Z,29.60
2019-06-20T04:03:45.462Z,34.20
2019-06-20T04:04:45.463Z,28.30
2019-06-20T04:05:45.466Z,32.00
2019-06-20T04:06:45.481Z,33.30
2019-06-20T04:07:45.479Z,29.80
2019-06-20T04:08:45.469Z,33.10
2019-06-20T04:09:45.471Z,29.40
2019-06-20T04:10:45.471Z,30.80
2019-06-20T04:11:45.472Z,35.90
2019-06-20T04:12:45.472Z,27.80
2019-06-20T04:13:45.473Z,38.00
2019-06-20T04:14:48.757Z,31.80
2019-06-20T04:15:45.474Z,29.80
2019-06-20T04:16:45.481Z,32.70
2019-06-20T04:17:45.478Z,30.20
2019-06-20T04:18:45.483Z,29.80
2019-06-20T04:19:45.500Z,38.60
2019-06-20T04:20:45.482Z,32.50
2019-06-20T04:21:45.492Z,28.20
2019-06-20T04:22:45.485Z,32.30
2019-06-20T04:23:45.487Z,30.00
2019-06-20T04:24:45.486Z,30.90
2019-06-20T04:25:45.490Z,30.90
2019-06-20T04:26:45.488Z,34.20
2019-06-20T04:27:45.492Z,28.10
2019-06-20T04:28:45.493Z,29.90
2019-06-20T04:29:45.493Z,29.10
2019-06-20T04:30:45.493Z,29.40
2019-06-20T04:31:45.493Z,31.10
2019-06-20T04:32:45.495Z,31.90
2019-06-20T04:33:45.502Z,27.80
2019-06-20T04:34:45.510Z,31.90
2019-06-20T04:35:45.497Z,33.50
2019-06-20T04:36:48.048Z,32.30
2019-06-20T04:37:45.500Z,33.30
2019-06-20T04:38:45.509Z,37.80
2019-06-20T04:39:45.507Z,27.90
2019-06-20T04:40:45.507Z,28.90
2019-06-20T04:41:45.505Z,31.30
2019-06-20T04:42:45.509Z,27.50
2019-06-20T04:43:45.520Z,31.20
2019-06-20T04:44:45.517Z,27.40
2019-06-20T04:45:45.512Z,32.80
2019-06-20T04:46:45.513Z,28.00
2019-06-20T04:47:45.512Z,31.00
2019-06-20T04:48:45.513Z,29.10
2019-06-20T04:49:45.521Z,28.80
2019-06-20T04:50:45.526Z,23.60
2019-06-20T04:51:45.518Z,28.50
2019-06-20T04:52:45.547Z,27.40
2019-06-20T04:53:45.521Z,26.50
2019-06-20T04:54:45.522Z,28.40
2019-06-20T04:55:45.522Z,25.70
2019-06-20T04:56:45.572Z,25.00
2019-06-20T04:57:45.533Z,31.50
2019-06-20T04:58:45.528Z,31.80
2019-06-20T04:59:45.529Z,32.30
2019-06-20T05:00:45.534Z,32.90
2019-06-20T05:01:45.534Z,30.20
2019-06-20T05:02:45.535Z,28.80
2019-06-20T05:03:45.611Z,28.10
2019-06-20T05:04:45.597Z,29.80
2019-06-20T05:05:45.538Z,37.50
2019-06-20T05:06:45.541Z,30.00
2019-06-20T05:07:45.542Z,23.30
2019-06-20T05:08:45.545Z,27.60
2019-06-20T05:09:45.545Z,25.10
2019-06-20T05:10:45.546Z,25.10
2019-06-20T05:11:45.548Z,35.30
2019-06-20T05:12:45.549Z,29.80
2019-06-20T05:13:45.567Z,29.90
2019-06-20T05:14:45.554Z,28.80
2019-06-20T05:15:52.512Z,22.40
2019-06-20T05:16:45.557Z,25.10
2019-06-20T05:17:45.560Z,28.30
2019-06-20T05:18:45.561Z,29.70
2019-06-20T05:19:45.562Z,27.60
2019-06-20T05:20:45.564Z,26.80
2019-06-20T05:21:45.576Z,37.20
2019-06-20T05:22:45.568Z,25.50
2019-06-20T05:23:45.572Z,26.90
2019-06-20T05:24:45.578Z,31.40
2019-06-20T05:25:45.577Z,27.80
2019-06-20T05:26:45.584Z,29.10
2019-06-20T05:27:45.627Z,30.30
2019-06-20T05:28:45.581Z,30.60
2019-06-20T05:29:45.651Z,32.70
2019-06-20T05:30:45.586Z,29.70
2019-06-20T05:31:45.587Z,29.40
2019-06-20T05:32:45.589Z,30.30
2019-06-20T05:33:45.592Z,31.90
2019-06-20T05:34:45.594Z,30.40
2019-06-20T05:35:45.595Z,33.80
2019-06-20T05:36:45.602Z,31.00
2019-06-20T05:37:45.600Z,31.60
2019-06-20T05:38:45.601Z,27.00
2019-06-20T05:39:45.603Z,30.20
2019-06-20T05:40:45.606Z,30.80
2019-06-20T05:41:45.611Z,32.90
2019-06-20T05:42:45.641Z,30.20
2019-06-20T05:43:45.613Z,30.20
2019-06-20T05:44:45.613Z,32.60
2019-06-20T05:45:48.675Z,32.40
2019-06-20T05:46:45.618Z,32.30
2019-06-20T05:47:45.617Z,33.70
2019-06-20T05:48:45.633Z,31.50
2019-06-20T05:49:45.623Z,33.00
2019-06-20T05:50:45.625Z,41.30
2019-06-20T05:51:45.626Z,39.40
2019-06-20T05:52:45.631Z,33.10
2019-06-20T05:53:45.631Z,37.20
2019-06-20T05:54:45.636Z,38.80
2019-06-20T05:55:45.635Z,35.90
2019-06-20T05:56:45.640Z,33.70
2019-06-20T05:57:45.639Z,33.60
2019-06-20T05:58:46.018Z,44.40
2019-06-20T05:59:45.645Z,40.20
2019-06-20T06:00:45.645Z,35.90
2019-06-20T06:01:45.648Z,36.30
2019-06-20T06:02:45.660Z,47.70
2019-06-20T06:03:45.653Z,42.20
2019-06-20T06:04:45.653Z,41.70
2019-06-20T06:05:45.692Z,42.50
2019-06-20T06:06:45.660Z,39.30
2019-06-20T06:07:45.659Z,46.20
2019-06-20T06:08:45.664Z,46.60
2019-06-20T06:09:45.742Z,48.20
2019-06-20T06:10:45.666Z,38.90
2019-06-20T06:11:45.669Z,44.50
2019-06-20T06:12:45.670Z,38.50
2019-06-20T06:13:45.673Z,46.90
2019-06-20T06:14:45.679Z,37.20
2019-06-20T06:15:45.675Z,43.40
2019-06-20T06:16:45.851Z,47.90
2019-06-20T06:17:45.680Z,44.10
2019-06-20T06:18:45.686Z,45.60
2019-06-20T06:19:45.685Z,41.20
2019-06-20T06:20:45.689Z,50.30
2019-06-20T06:21:45.691Z,44.50
2019-06-20T06:22:45.694Z,43.00
2019-06-20T06:23:45.693Z,40.80
2019-06-20T06:24:45.698Z,43.40
2019-06-20T06:25:45.697Z,42.60
2019-06-20T06:26:45.702Z,44.10
2019-06-20T06:27:45.702Z,44.30
2019-06-20T06:28:45.705Z,47.40
2019-06-20T06:29:45.708Z,39.40
2019-06-20T06:30:45.709Z,45.00
2019-06-20T06:31:45.710Z,44.90
2019-06-20T06:32:45.714Z,38.90
2019-06-20T06:33:45.715Z,37.50
2019-06-20T06:34:45.722Z,49.20
2019-06-20T06:35:45.723Z,36.90
2019-06-20T06:36:45.724Z,42.10
2019-06-20T06:37:45.750Z,48.00
2019-06-20T06:38:45.727Z,43.90
2019-06-20T06:39:45.731Z,38.60
2019-06-20T06:40:45.731Z,42.60
2019-06-20T06:41:45.737Z,38.70
2019-06-20T06:42:45.782Z,33.40
2019-06-20T06:43:45.741Z,38.80
2019-06-20T06:44:45.742Z,44.70
2019-06-20T06:45:45.744Z,34.50
2019-06-20T06:46:53.149Z,35.80
2019-06-20T06:47:45.850Z,36.70
2019-06-20T06:48:45.752Z,33.40
2019-06-20T06:49:45.756Z,35.50
2019-06-20T06:50:45.757Z,33.50
2019-06-20T06:51:45.759Z,32.30
2019-06-20T06:52:45.767Z,34.10
2019-06-20T06:53:45.765Z,38.30
2019-06-20T06:54:45.775Z,38.70
2019-06-20T06:55:45.771Z,34.50
2019-06-20T06:56:45.774Z,35.70
2019-06-20T06:57:45.778Z,36.00
2019-06-20T06:58:45.779Z,34.20
2019-06-20T06:59:45.787Z,31.60
2019-06-20T07:00:45.785Z,32.50
2019-06-20T07:01:45.790Z,33.30
2019-06-20T07:02:45.798Z,29.60
2019-06-20T07:03:45.795Z,29.60
2019-06-20T07:04:45.799Z,26.90
2019-06-20T07:05:45.811Z,25.10
2019-06-20T07:06:45.806Z,33.50
2019-06-20T07:07:45.875Z,28.70
2019-06-20T07:08:45.813Z,29.90
2019-06-20T07:09:45.832Z,29.50
2019-06-20T07:10:45.821Z,28.70
2019-06-20T07:11:45.823Z,25.30
2019-06-20T07:12:45.872Z,30.50
2019-06-20T07:13:45.832Z,27.00
2019-06-20T07:14:45.857Z,26.10
2019-06-20T07:15:45.841Z,31.80
2019-06-20T07:16:59.504Z,27.70
2019-06-20T07:17:45.852Z,25.00
2019-06-20T07:18:45.854Z,25.90
2019-06-20T07:19:45.857Z,26.10
2019-06-20T07:20:45.864Z,24.20
2019-06-20T07:21:45.868Z,28.70
2019-06-20T07:22:45.869Z,27.40
2019-06-20T07:23:45.873Z,27.90
2019-06-20T07:24:45.877Z,26.60
2019-06-20T07:25:45.885Z,25.90
2019-06-20T07:26:45.886Z,27.50
2019-06-20T07:27:45.889Z,29.80
2019-06-20T07:28:45.895Z,27.60
2019-06-20T07:29:45.904Z,24.30
2019-06-20T07:30:45.904Z,23.60
2019-06-20T07:31:45.908Z,28.20
2019-06-20T07:32:45.920Z,28.80
2019-06-20T07:33:45.916Z,25.40
2019-06-20T07:34:45.921Z,27.60
2019-06-20T07:35:45.927Z,28.70
2019-06-20T07:36:45.929Z,25.80
2019-06-20T07:37:45.934Z,30.10
2019-06-20T07:38:45.940Z,31.40
2019-06-20T07:39:45.941Z,28.90
2019-06-20T07:40:45.949Z,31.70
2019-06-20T07:41:45.952Z,28.00
2019-06-20T07:42:45.958Z,28.30
2019-06-20T07:43:45.965Z,30.90
2019-06-20T07:44:45.965Z,26.90
2019-06-20T07:46:01.549Z,31.30
2019-06-20T07:46:45.973Z,30.50
2019-06-20T07:47:46.003Z,26.70
2019-06-20T07:48:45.983Z,25.60
2019-06-20T07:49:46.066Z,26.90
2019-06-20T07:50:45.991Z,25.70
2019-06-20T07:51:45.996Z,25.70
2019-06-20T07:53:00.959Z,29.50
2019-06-20T07:53:46.005Z,26.30
2019-06-20T07:54:46.008Z,28.80
2019-06-20T07:55:46.011Z,37.80
2019-06-20T07:56:46.022Z,32.30
2019-06-20T07:57:46.019Z,29.60
2019-06-20T07:58:46.030Z,27.50
2019-06-20T07:59:46.026Z,34.60
2019-06-20T08:00:46.030Z,33.90
2019-06-20T08:01:46.048Z,39.10
2019-06-20T08:02:46.039Z,28.80
2019-06-20T08:03:46.042Z,33.80
2019-06-20T08:04:46.046Z,33.10
2019-06-20T08:05:46.049Z,38.40
2019-06-20T08:06:46.052Z,35.50
2019-06-20T08:07:46.054Z,36.10
2019-06-20T08:08:46.077Z,30.70
2019-06-20T08:09:46.064Z,33.60
2019-06-20T08:10:46.070Z,34.70
2019-06-20T08:11:46.070Z,37.30
2019-06-20T08:12:46.077Z,30.50
2019-06-20T08:13:46.083Z,37.50
2019-06-20T08:14:46.086Z,36.20
2019-06-20T08:15:46.092Z,32.80
2019-06-20T08:16:46.095Z,37.90
2019-06-20T08:17:46.100Z,38.30
2019-06-20T08:18:46.105Z,30.10
2019-06-20T08:19:46.177Z,35.80
2019-06-20T08:20:46.116Z,31.10
2019-06-20T08:21:46.122Z,31.80
2019-06-20T08:22:46.130Z,33.40
2019-06-20T08:23:46.135Z,26.30
2019-06-20T08:24:46.141Z,29.80
2019-06-20T08:25:46.148Z,32.40
2019-06-20T08:26:46.154Z,30.80
2019-06-20T08:27:46.162Z,31.20
2019-06-20T08:28:46.182Z,27.50
2019-06-20T08:29:46.175Z,27.20
2019-06-20T08:30:46.182Z,32.30
2019-06-20T08:31:46.186Z,26.10
2019-06-20T08:32:46.194Z,26.70
2019-06-20T08:33:46.202Z,29.20
2019-06-20T08:34:46.208Z,25.80
2019-06-20T08:35:46.214Z,30.80
2019-06-20T08:36:46.221Z,27.30
2019-06-20T08:37:46.227Z,25.60
2019-06-20T08:38:46.237Z,28.40
2019-06-20T08:39:46.245Z,24.00
2019-06-20T08:40:46.245Z,25.40
2019-06-20T08:41:46.252Z,28.40
2019-06-20T08:42:46.260Z,29.20
2019-06-20T08:43:46.263Z,25.50
2019-06-20T08:44:46.310Z,23.20
2019-06-20T08:45:46.279Z,25.30
2019-06-20T08:46:46.283Z,28.50
2019-06-20T08:47:46.311Z,25.50
2019-06-20T08:48:46.295Z,26.40
2019-06-20T08:49:46.310Z,25.40
2019-06-20T08:50:46.305Z,28.40
2019-06-20T08:51:46.313Z,30.60
2019-06-20T08:52:46.321Z,30.20
2019-06-20T08:53:46.324Z,24.30
2019-06-20T08:54:46.327Z,27.20
2019-06-20T08:55:46.331Z,28.50
2019-06-20T08:56:46.339Z,27.30
2019-06-20T08:57:46.361Z,24.80
2019-06-20T08:58:46.348Z,19.00
2019-06-20T08:59:46.353Z,29.60
2019-06-20T09:00:46.361Z,23.60
2019-06-20T09:01:46.371Z,26.50
2019-06-20T09:02:46.372Z,19.00
2019-06-20T09:03:46.372Z,17.40
2019-06-20T09:04:46.376Z,20.30
2019-06-20T09:05:46.381Z,15.00
2019-06-20T09:06:49.211Z,19.50
2019-06-20T09:07:46.390Z,18.60
2019-06-20T09:08:46.396Z,17.10
2019-06-20T09:09:46.401Z,16.60
2019-06-20T09:10:46.405Z,15.20
2019-06-20T09:11:46.410Z,21.50
2019-06-20T09:12:46.415Z,21.50
2019-06-20T09:13:46.428Z,18.40
2019-06-20T09:14:46.425Z,15.50
2019-06-20T09:15:46.429Z,18.50
2019-06-20T09:16:46.435Z,18.10
2019-06-20T09:17:46.441Z,15.40
2019-06-20T09:18:46.452Z,20.50
2019-06-20T09:19:46.451Z,16.30
2019-06-20T09:20:46.456Z,18.70
2019-06-20T09:21:46.470Z,12.90
2019-06-20T09:22:46.465Z,17.50
2019-06-20T09:23:46.477Z,16.60
2019-06-20T09:24:46.475Z,20.10
2019-06-20T09:25:46.482Z,18.40
2019-06-20T09:26:46.487Z,20.40
2019-06-20T09:27:46.496Z,21.10
2019-06-20T09:28:46.499Z,16.50
2019-06-20T09:29:46.503Z,17.70
2019-06-20T09:30:46.512Z,13.40
2019-06-20T09:31:46.516Z,15.50
2019-06-20T09:32:46.520Z,13.20
2019-06-20T09:33:46.530Z,11.20
2019-06-20T09:34:46.533Z,11.60
2019-06-20T09:35:46.550Z,14.10
2019-06-20T09:36:46.552Z,9.60
2019-06-20T09:37:46.551Z,15.20
2019-06-20T09:38:46.566Z,13.20
2019-06-20T09:39:46.565Z,11.90
2019-06-20T09:40:46.571Z,13.20
2019-06-20T09:41:46.579Z,10.10
2019-06-20T09:42:46.587Z,11.30
2019-06-20T09:43:46.593Z,13.00
2019-06-20T09:44:46.603Z,10.70
2019-06-20T09:45:46.639Z,17.10
2019-06-20T09:46:46.623Z,12.90
2019-06-20T09:47:46.649Z,12.00
2019-06-20T09:48:46.629Z,10.80
2019-06-20T09:49:49.181Z,8.90
2019-06-20T09:50:49.370Z,10.90
2019-06-20T09:51:48.590Z,7.40
2019-06-20T09:52:49.753Z,8.30
2019-06-20T09:53:48.374Z,10.60
2019-06-20T09:54:48.518Z,13.30
2019-06-20T09:55:48.221Z,8.10
2019-06-20T09:56:48.494Z,10.30
2019-06-20T09:57:47.331Z,6.90
2019-06-20T09:58:47.861Z,8.00
2019-06-20T09:59:58.992Z,12.40
2019-06-20T10:00:47.725Z,8.10
2019-06-20T10:01:47.758Z,8.40
2019-06-20T10:02:48.602Z,11.00
2019-06-20T10:03:47.865Z,10.00
2019-06-20T10:04:47.875Z,8.80
2019-06-20T10:05:47.678Z,11.10
2019-06-20T10:06:47.422Z,8.40
2019-06-20T10:07:47.264Z,9.20
2019-06-20T10:08:48.031Z,7.60
2019-06-20T10:09:48.157Z,7.00
2019-06-20T10:10:48.920Z,9.00
2019-06-20T10:11:47.928Z,12.70
2019-06-20T10:12:47.858Z,10.90
2019-06-20T10:13:48.129Z,10.40
2019-06-20T10:14:47.968Z,9.60
2019-06-20T10:15:47.847Z,10.10
2019-06-20T10:16:50.334Z,6.40
2019-06-20T10:17:47.383Z,11.00
2019-06-20T10:18:48.169Z,10.90
2019-06-20T10:19:48.282Z,9.70
2019-06-20T10:20:47.255Z,11.10
2019-06-20T10:21:47.779Z,8.10
2019-06-20T10:22:47.340Z,6.90
2019-06-20T10:23:47.735Z,7.50
2019-06-20T10:24:47.435Z,10.90
2019-06-20T10:25:47.814Z,6.90
2019-06-20T10:26:48.020Z,7.60
2019-06-20T10:27:48.294Z,10.50
2019-06-20T10:28:47.688Z,9.00
2019-06-20T10:29:47.594Z,10.50
2019-06-20T10:30:46.965Z,9.60
2019-06-20T10:31:47.915Z,10.60
2019-06-20T10:32:46.980Z,7.00
2019-06-20T10:33:48.362Z,5.00
2019-06-20T10:34:48.286Z,6.40
2019-06-20T10:35:48.341Z,4.20
2019-06-20T10:36:48.038Z,4.30
2019-06-20T10:37:48.368Z,4.30
2019-06-20T10:38:48.001Z,5.60
2019-06-20T10:39:47.763Z,5.80
2019-06-20T10:40:47.898Z,6.50
2019-06-20T10:41:48.469Z,6.10
2019-06-20T10:42:48.057Z,8.40
2019-06-20T10:43:47.578Z,5.70
2019-06-20T10:44:47.674Z,5.60
2019-06-20T10:45:47.394Z,5.90
2019-06-20T10:46:47.342Z,5.70
2019-06-20T10:47:47.303Z,6.00
2019-06-20T10:48:47.917Z,8.40
2019-06-20T10:49:47.792Z,5.20
2019-06-20T10:50:47.712Z,5.00
2019-06-20T10:51:47.631Z,7.90
2019-06-20T10:52:48.078Z,6.40
2019-06-20T10:53:47.188Z,6.00
2019-06-20T10:54:47.163Z,7.90
2019-06-20T10:55:47.186Z,6.20
2019-06-20T10:56:47.295Z,8.30
2019-06-20T10:57:47.461Z,5.70
2019-06-20T10:58:48.377Z,5.00
2019-06-20T10:59:48.406Z,5.80
2019-06-20T11:00:48.283Z,5.10
2019-06-20T11:01:48.283Z,5.00
2019-06-20T11:02:47.233Z,5.60
2019-06-20T11:03:47.820Z,6.00
2019-06-20T11:04:47.742Z,5.30
2019-06-20T11:05:48.141Z,5.80
2019-06-20T11:06:47.648Z,5.40
2019-06-20T11:07:47.630Z,5.60
2019-06-20T11:08:47.300Z,6.20
2019-06-20T11:09:47.295Z,6.00
2019-06-20T11:10:47.302Z,8.50
2019-06-20T11:11:47.308Z,8.20
2019-06-20T11:12:52.420Z,7.70
2019-06-20T11:13:48.536Z,6.50
2019-06-20T11:14:48.400Z,7.90
2019-06-20T11:15:48.289Z,7.40
2019-06-20T11:16:47.354Z,5.80
2019-06-20T11:17:48.373Z,4.80
2019-06-20T11:18:48.724Z,6.80
2019-06-20T11:19:48.054Z,5.40
2019-06-20T11:20:48.679Z,6.40
2019-06-20T11:21:47.706Z,6.40
2019-06-20T11:22:47.772Z,5.40
2019-06-20T11:23:47.497Z,4.70
2019-06-20T11:24:47.509Z,5.70
2019-06-20T11:25:48.337Z,8.50
2019-06-20T11:26:47.929Z,7.70
2019-06-20T11:27:47.562Z,10.80
2019-06-20T11:28:48.649Z,7.00
2019-06-20T11:29:47.453Z,6.90
2019-06-20T11:30:58.150Z,9.10
2019-06-20T11:31:48.281Z,6.90
2019-06-20T11:32:48.766Z,7.50
2019-06-20T11:33:48.351Z,6.60
2019-06-20T11:34:47.592Z,8.60
2019-06-20T11:35:47.985Z,9.20
2019-06-20T11:36:47.495Z,9.30
2019-06-20T11:37:47.504Z,6.20
2019-06-20T11:38:49.114Z,6.50
2019-06-20T11:39:47.515Z,7.90
2019-06-20T11:40:48.175Z,9.60
2019-06-20T11:41:48.529Z,9.10
2019-06-20T11:42:47.534Z,6.40
2019-06-20T11:43:47.541Z,6.20
2019-06-20T11:44:47.549Z,7.60
2019-06-20T11:45:47.553Z,5.00
2019-06-20T11:46:47.560Z,5.30
2019-06-20T11:47:47.566Z,6.90
2019-06-20T11:48:47.572Z,6.90
2019-06-20T11:49:47.581Z,7.90
2019-06-20T11:50:47.590Z,6.40
2019-06-20T11:51:47.668Z,7.30
2019-06-20T11:52:47.601Z,7.20
2019-06-20T11:53:47.603Z,6.80
2019-06-20T11:54:47.612Z,7.80
2019-06-20T11:55:47.617Z,6.50
2019-06-20T11:56:47.626Z,5.50
2019-06-20T11:57:47.628Z,14.60
2019-06-20T11:58:47.637Z,5.20
2019-06-20T11:59:47.641Z,8.90
2019-06-20T12:01:02.614Z,5.10
2019-06-20T12:01:48.996Z,11.00
2019-06-20T12:02:48.258Z,7.20
2019-06-20T12:03:48.912Z,7.00
2019-06-20T12:04:47.671Z,6.30
2019-06-20T12:05:47.677Z,8.00
2019-06-20T12:06:47.683Z,9.80
2019-06-20T12:07:48.008Z,8.60
2019-06-20T12:08:48.985Z,5.90
2019-06-20T12:09:48.978Z,6.20
2019-06-20T12:10:47.709Z,9.90
2019-06-20T12:11:48.786Z,8.90
2019-06-20T12:12:48.992Z,8.40
2019-06-20T12:13:48.553Z,7.00
2019-06-20T12:14:48.600Z,7.60
2019-06-20T12:15:48.907Z,6.30
2019-06-20T12:16:48.685Z,5.00
2019-06-20T12:17:49.143Z,6.80
2019-06-20T12:18:47.756Z,8.70
2019-06-20T12:19:48.733Z,7.00
2019-06-20T12:20:48.731Z,8.40
2019-06-20T12:21:49.013Z,6.40
2019-06-20T12:22:50.519Z,8.70
2019-06-20T12:23:48.969Z,6.30
2019-06-20T12:24:48.818Z,7.90
2019-06-20T12:25:48.770Z,6.50
2019-06-20T12:26:48.636Z,5.70
2019-06-20T12:27:47.869Z,7.90
2019-06-20T12:28:48.671Z,10.00
2019-06-20T12:29:49.347Z,6.00
2019-06-20T12:30:48.358Z,5.00
2019-06-20T12:31:48.462Z,6.20
2019-06-20T12:32:49.170Z,9.70
2019-06-20T12:33:47.851Z,5.30
2019-06-20T12:34:48.955Z,7.80
2019-06-20T12:35:48.712Z,5.50
2019-06-20T12:36:48.599Z,9.20
2019-06-20T12:37:48.110Z,7.40
2019-06-20T12:38:48.367Z,7.40
2019-06-20T12:39:48.669Z,7.90
2019-06-20T12:40:47.896Z,10.40
2019-06-20T12:41:47.900Z,14.00
2019-06-20T12:42:49.136Z,7.60
2019-06-20T12:43:48.301Z,5.30
2019-06-20T12:44:47.919Z,11.00
2019-06-20T12:45:47.925Z,4.50
2019-06-20T12:46:49.019Z,7.60
2019-06-20T12:47:47.936Z,8.10
2019-06-20T12:48:49.160Z,6.40
2019-06-20T12:49:47.949Z,7.20
2019-06-20T12:50:47.956Z,6.90
2019-06-20T12:51:49.004Z,12.00
2019-06-20T12:52:49.527Z,8.10
2019-06-20T12:53:47.975Z,5.80
2019-06-20T12:54:49.144Z,9.00
2019-06-20T12:55:47.986Z,8.90
2019-06-20T12:56:48.287Z,6.10
2019-06-20T12:57:48.521Z,8.10